Time;durP1;ratioP1;P1;durP2;ratioP2;P2;SDS_P1;SDS_P2;PMS_P1;PMS_P2;Temp;Humidity;BMP_temperature;BMP_pressure;BME280_temperature;BME280_humidity;BME280_pressure;Samples;Min_cycle;Max_cycle;Signal;HPM_P1;HPM_P2
2021/05/30 00:00:19;;;;;;;;;;;21.80;38.40;;;;;;491417;240;999;-72
2021/05/30 00:02:21;;;;;;;;;;;21.90;38.30;;;;;;491454;240;1111;-72
2021/05/30 00:04:22;;;;;;;;;;;21.80;38.30;;;;;;491483;240;1422;-73
2021/05/30 00:06:23;;;;;;;;;;;21.80;38.30;;;;;;491532;240;1217;-72
2021/05/30 00:08:24;;;;;;;;;;;21.80;38.30;;;;;;491570;240;2169;-72
2021/05/30 00:10:26;;;;;;;;;;;21.80;38.30;;;;;;491490;240;1179;-72
2021/05/30 00:12:27;;;;;;;;;;;21.80;38.30;;;;;;491552;240;1158;-72
2021/05/30 00:14:29;;;;;;;;;;;21.90;38.20;;;;;;491555;240;982;-72
2021/05/30 00:16:30;;;;;;;;;;;21.90;38.10;;;;;;491500;240;1196;-73
2021/05/30 00:18:31;;;;;;;;;;;21.80;38.10;;;;;;491537;240;973;-72
2021/05/30 00:20:33;;;;;;;;;;;21.90;38.20;;;;;;491347;240;1303;-72
2021/05/30 00:22:34;;;;;;;;;;;21.80;38.10;;;;;;491471;240;1134;-72
2021/05/30 00:24:36;;;;;;;;;;;21.80;38.20;;;;;;491453;240;1099;-72
2021/05/30 00:26:37;;;;;;;;;;;21.80;38.10;;;;;;491329;240;1151;-72
2021/05/30 00:28:38;;;;;;;;;;;21.90;38.10;;;;;;491510;240;2132;-73
2021/05/30 00:30:39;;;;;;;;;;;21.90;38.00;;;;;;491429;240;1053;-73
2021/05/30 00:32:41;;;;;;;;;;;21.90;38.10;;;;;;491480;240;1140;-73
2021/05/30 00:34:42;;;;;;;;;;;21.90;38.00;;;;;;491640;240;970;-72
2021/05/30 00:36:43;;;;;;;;;;;22.00;37.90;;;;;;491479;240;1232;-73
2021/05/30 00:38:45;;;;;;;;;;;22.00;37.80;;;;;;491609;240;1057;-72
2021/05/30 00:40:46;;;;;;;;;;;21.90;37.80;;;;;;491544;240;1221;-72
2021/05/30 00:42:48;;;;;;;;;;;22.00;37.80;;;;;;491595;240;1122;-72
2021/05/30 00:44:48;;;;;;;;;;;22.00;37.70;;;;;;491488;240;1386;-72
2021/05/30 00:46:50;;;;;;;;;;;22.00;37.70;;;;;;491440;240;1199;-72
2021/05/30 00:48:51;;;;;;;;;;;21.90;37.80;;;;;;491456;240;2176;-73
2021/05/30 00:50:52;;;;;;;;;;;21.90;37.90;;;;;;491408;240;996;-73
2021/05/30 00:52:54;;;;;;;;;;;21.80;37.90;;;;;;491450;240;1069;-72
2021/05/30 00:54:55;;;;;;;;;;;21.80;38.00;;;;;;491505;240;1076;-73
2021/05/30 00:56:56;;;;;;;;;;;21.80;38.10;;;;;;491497;240;1201;-73
2021/05/30 00:58:57;;;;;;;;;;;21.80;38.00;;;;;;491613;240;1048;-72
2021/05/30 01:00:59;;;;;;;;;;;21.80;38.00;;;;;;491539;240;1185;-72
2021/05/30 01:03:00;;;;;;;;;;;21.80;38.00;;;;;;491634;240;1047;-73
2021/05/30 01:05:01;;;;;;;;;;;21.80;37.90;;;;;;491598;240;957;-73
2021/05/30 01:07:02;;;;;;;;;;;21.80;37.80;;;;;;491546;240;1147;-73
2021/05/30 01:09:04;;;;;;;;;;;21.80;37.90;;;;;;491576;240;2187;-73
2021/05/30 01:11:05;;;;;;;;;;;21.80;37.90;;;;;;491450;240;1083;-72
2021/05/30 01:13:07;;;;;;;;;;;21.80;37.80;;;;;;491435;240;1208;-72
2021/05/30 01:15:08;;;;;;;;;;;21.80;37.80;;;;;;491400;240;1050;-72
2021/05/30 01:17:09;;;;;;;;;;;21.80;37.90;;;;;;491468;240;979;-72
2021/05/30 01:19:10;;;;;;;;;;;21.80;37.90;;;;;;491460;240;992;-72
2021/05/30 01:21:12;;;;;;;;;;;21.80;37.70;;;;;;491337;240;1133;-72
2021/05/30 01:23:13;;;;;;;;;;;21.80;37.70;;;;;;491599;240;1284;-72
2021/05/30 01:25:14;;;;;;;;;;;21.80;37.70;;;;;;491479;240;1025;-72
2021/05/30 01:27:17;;;;;;;;;;;21.80;37.70;;;;;;491563;240;1068;-72
2021/05/30 01:29:18;;;;;;;;;;;21.90;37.60;;;;;;491578;240;2187;-73
2021/05/30 01:31:19;;;;;;;;;;;21.80;37.60;;;;;;491535;240;1207;-72
2021/05/30 01:33:20;;;;;;;;;;;21.70;37.60;;;;;;491534;240;1063;-72
2021/05/30 01:35:21;;;;;;;;;;;21.80;37.70;;;;;;491566;240;992;-72
2021/05/30 01:37:23;;;;;;;;;;;21.70;37.70;;;;;;491483;240;1083;-72
2021/05/30 01:39:26;;;;;;;;;;;21.70;37.70;;;;;;491515;240;1017;-73
2021/05/30 01:41:25;;;;;;;;;;;21.80;37.60;;;;;;491427;240;1528;-72
2021/05/30 01:43:27;;;;;;;;;;;21.80;37.60;;;;;;491473;240;1173;-72
2021/05/30 01:45:30;;;;;;;;;;;21.80;37.60;;;;;;491367;240;992;-72
2021/05/30 01:47:30;;;;;;;;;;;21.80;37.60;;;;;;491431;240;1398;-73
2021/05/30 01:49:31;;;;;;;;;;;21.70;37.60;;;;;;491576;240;2135;-72
2021/05/30 01:51:33;;;;;;;;;;;21.70;37.60;;;;;;491396;240;1168;-72
2021/05/30 01:53:38;;;;;;;;;;;21.70;37.60;;;;;;491621;240;981;-73
2021/05/30 01:55:48;;;;;;;;;;;21.70;37.60;;;;;;491565;240;1354;-72
2021/05/30 01:57:46;;;;;;;;;;;21.70;37.70;;;;;;491494;240;1316;-72
2021/05/30 01:59:47;;;;;;;;;;;21.70;37.60;;;;;;491632;240;963;-72
2021/05/30 02:01:48;;;;;;;;;;;21.80;37.50;;;;;;491531;240;1316;-73
2021/05/30 02:03:50;;;;;;;;;;;21.80;37.50;;;;;;491475;240;951;-73
2021/05/30 02:05:51;;;;;;;;;;;21.70;37.50;;;;;;491438;240;990;-73
2021/05/30 02:07:52;;;;;;;;;;;21.70;37.60;;;;;;491419;240;978;-72
2021/05/30 02:09:54;;;;;;;;;;;21.70;37.40;;;;;;491442;240;2144;-72
2021/05/30 02:11:55;;;;;;;;;;;21.80;37.30;;;;;;491385;240;1019;-72
2021/05/30 02:13:56;;;;;;;;;;;21.80;37.30;;;;;;491519;240;1200;-73
2021/05/30 02:15:57;;;;;;;;;;;21.80;37.30;;;;;;491552;240;935;-72
2021/05/30 02:17:59;;;;;;;;;;;21.80;37.20;;;;;;491589;240;1083;-72
2021/05/30 02:20:00;;;;;;;;;;;21.80;37.20;;;;;;491582;240;961;-72
2021/05/30 02:22:01;;;;;;;;;;;21.90;37.10;;;;;;491446;240;999;-72
2021/05/30 02:24:03;;;;;;;;;;;21.90;37.00;;;;;;491545;240;1068;-73
2021/05/30 02:26:04;;;;;;;;;;;21.90;37.10;;;;;;491598;240;1054;-72
2021/05/30 02:28:05;;;;;;;;;;;21.80;37.10;;;;;;491612;240;1169;-73
2021/05/30 02:30:06;;;;;;;;;;;21.80;37.10;;;;;;491516;240;2184;-72
2021/05/30 02:32:08;;;;;;;;;;;21.90;37.20;;;;;;491376;240;1031;-72
2021/05/30 02:34:09;;;;;;;;;;;21.80;37.10;;;;;;491387;240;1061;-72
2021/05/30 02:36:10;;;;;;;;;;;21.80;37.20;;;;;;491390;240;996;-72
2021/05/30 02:38:12;;;;;;;;;;;21.90;37.20;;;;;;491509;240;1205;-72
2021/05/30 02:40:13;;;;;;;;;;;21.80;37.20;;;;;;491460;240;1009;-72
2021/05/30 02:42:14;;;;;;;;;;;21.80;37.10;;;;;;491589;240;1061;-72
2021/05/30 02:44:15;;;;;;;;;;;21.80;37.20;;;;;;491623;240;1145;-72
2021/05/30 02:46:17;;;;;;;;;;;21.70;37.30;;;;;;491519;240;1058;-73
2021/05/30 02:48:18;;;;;;;;;;;21.70;37.20;;;;;;491598;240;1051;-72
2021/05/30 02:50:19;;;;;;;;;;;21.80;37.20;;;;;;491523;240;2128;-72
2021/05/30 02:52:20;;;;;;;;;;;21.70;37.20;;;;;;491514;240;1014;-72
2021/05/30 02:54:22;;;;;;;;;;;21.80;37.30;;;;;;491552;240;967;-73
2021/05/30 02:56:23;;;;;;;;;;;21.80;37.10;;;;;;491428;240;1019;-73
2021/05/30 02:58:24;;;;;;;;;;;21.80;37.10;;;;;;491419;240;1276;-72
2021/05/30 03:00:26;;;;;;;;;;;21.80;37.10;;;;;;491493;240;1051;-73
2021/05/30 03:02:27;;;;;;;;;;;21.70;37.10;;;;;;491454;240;1038;-73
2021/05/30 03:04:28;;;;;;;;;;;21.80;37.10;;;;;;491435;240;1049;-72
2021/05/30 03:06:30;;;;;;;;;;;21.80;37.10;;;;;;491486;240;1016;-72
2021/05/30 03:08:31;;;;;;;;;;;21.80;37.10;;;;;;491600;240;1171;-72
2021/05/30 03:10:32;;;;;;;;;;;21.80;37.10;;;;;;491568;240;2204;-72
2021/05/30 03:12:34;;;;;;;;;;;21.80;37.10;;;;;;491543;240;1047;-73
2021/05/30 03:14:35;;;;;;;;;;;21.80;37.10;;;;;;491473;240;1133;-73
2021/05/30 03:16:36;;;;;;;;;;;21.70;37.10;;;;;;491442;240;992;-73
2021/05/30 03:18:37;;;;;;;;;;;21.70;37.20;;;;;;491588;240;1067;-72
2021/05/30 03:20:39;;;;;;;;;;;21.80;37.10;;;;;;491475;240;1052;-72
2021/05/30 03:22:40;;;;;;;;;;;21.70;37.10;;;;;;491447;240;1040;-72
2021/05/30 03:24:41;;;;;;;;;;;21.80;37.10;;;;;;491494;240;1220;-72
2021/05/30 03:26:42;;;;;;;;;;;21.70;37.10;;;;;;491363;240;993;-73
2021/05/30 03:28:44;;;;;;;;;;;21.70;37.20;;;;;;491470;240;1140;-73
2021/05/30 03:30:45;;;;;;;;;;;21.70;37.10;;;;;;491409;240;2176;-72
2021/05/30 03:32:46;;;;;;;;;;;21.70;37.00;;;;;;491557;240;1089;-72
2021/05/30 03:34:48;;;;;;;;;;;21.80;36.90;;;;;;491570;240;946;-73
2021/05/30 03:36:53;;;;;;;;;;;21.80;36.90;;;;;;491552;240;1122;-72
2021/05/30 03:38:59;;;;;;;;;;;21.70;37.00;;;;;;491577;240;1324;-72
2021/05/30 03:41:00;;;;;;;;;;;21.70;36.90;;;;;;491618;240;1422;-72
2021/05/30 03:42:58;;;;;;;;;;;21.70;37.00;;;;;;491589;240;1419;-73
2021/05/30 03:44:59;;;;;;;;;;;21.70;36.90;;;;;;491539;240;1160;-73
2021/05/30 03:47:00;;;;;;;;;;;21.70;37.00;;;;;;491496;240;1097;-72
2021/05/30 03:49:01;;;;;;;;;;;21.70;37.00;;;;;;491471;240;1055;-72
2021/05/30 03:51:03;;;;;;;;;;;21.80;36.90;;;;;;491397;240;2176;-72
2021/05/30 03:53:04;;;;;;;;;;;21.70;37.00;;;;;;491369;240;1072;-73
2021/05/30 03:55:05;;;;;;;;;;;21.70;37.00;;;;;;491412;240;988;-72
2021/05/30 03:57:06;;;;;;;;;;;21.70;37.00;;;;;;491381;240;1254;-72
2021/05/30 03:59:08;;;;;;;;;;;21.70;36.90;;;;;;491525;240;1163;-72
2021/05/30 04:01:09;;;;;;;;;;;21.70;37.00;;;;;;491438;240;1187;-73
2021/05/30 04:03:10;;;;;;;;;;;21.80;36.90;;;;;;491520;240;1162;-72
2021/05/30 04:05:12;;;;;;;;;;;21.70;36.80;;;;;;491529;240;1174;-72
2021/05/30 04:07:13;;;;;;;;;;;21.70;36.80;;;;;;491536;240;1234;-72
2021/05/30 04:09:15;;;;;;;;;;;21.80;36.90;;;;;;491583;240;2184;-72
2021/05/30 04:11:16;;;;;;;;;;;21.70;37.00;;;;;;491517;240;1282;-73
2021/05/30 04:13:17;;;;;;;;;;;21.70;36.90;;;;;;491598;240;1033;-72
2021/05/30 04:15:18;;;;;;;;;;;21.70;36.80;;;;;;491439;240;1199;-72
2021/05/30 04:17:20;;;;;;;;;;;21.80;36.90;;;;;;491444;240;1095;-72
2021/05/30 04:19:21;;;;;;;;;;;21.70;36.80;;;;;;491464;240;1062;-73
2021/05/30 04:21:23;;;;;;;;;;;21.70;36.90;;;;;;491274;240;1172;-72
2021/05/30 04:23:24;;;;;;;;;;;21.70;37.00;;;;;;491491;240;1068;-72
2021/05/30 04:25:25;;;;;;;;;;;21.80;36.90;;;;;;491491;240;962;-72
2021/05/30 04:27:27;;;;;;;;;;;21.70;37.00;;;;;;491475;240;1105;-72
2021/05/30 04:29:28;;;;;;;;;;;21.80;37.00;;;;;;491558;240;2156;-72
2021/05/30 04:31:29;;;;;;;;;;;21.70;37.00;;;;;;491491;240;1176;-72
2021/05/30 04:33:31;;;;;;;;;;;21.80;36.90;;;;;;491586;240;975;-72
2021/05/30 04:35:32;;;;;;;;;;;21.80;36.90;;;;;;491549;240;949;-72
2021/05/30 04:37:33;;;;;;;;;;;21.80;36.90;;;;;;491531;240;1094;-72
2021/05/30 04:39:35;;;;;;;;;;;21.80;37.00;;;;;;491428;240;1017;-72
2021/05/30 04:41:36;;;;;;;;;;;21.90;36.90;;;;;;491439;240;1140;-72
2021/05/30 04:43:37;;;;;;;;;;;21.90;36.90;;;;;;491522;240;968;-72
2021/05/30 04:45:39;;;;;;;;;;;21.80;37.00;;;;;;491460;240;1103;-72
2021/05/30 04:47:40;;;;;;;;;;;21.80;37.10;;;;;;491434;240;1067;-72
2021/05/30 04:49:41;;;;;;;;;;;21.90;37.00;;;;;;491556;240;2140;-72
2021/05/30 04:51:43;;;;;;;;;;;21.90;37.00;;;;;;491513;240;1302;-73
2021/05/30 04:53:44;;;;;;;;;;;21.90;36.90;;;;;;491622;240;1093;-73
2021/05/30 04:55:45;;;;;;;;;;;21.90;37.10;;;;;;491612;240;989;-72
2021/05/30 04:57:46;;;;;;;;;;;21.90;37.20;;;;;;491581;240;1098;-72
2021/05/30 04:59:47;;;;;;;;;;;21.90;37.30;;;;;;491631;240;1176;-72
2021/05/30 05:01:50;;;;;;;;;;;21.90;37.20;;;;;;491582;240;1162;-72
2021/05/30 05:03:51;;;;;;;;;;;22.00;37.20;;;;;;491611;240;1469;-72
2021/05/30 05:05:52;;;;;;;;;;;21.90;37.20;;;;;;491496;240;1026;-73
2021/05/30 05:07:53;;;;;;;;;;;21.90;37.30;;;;;;491477;240;1100;-72
2021/05/30 05:09:54;;;;;;;;;;;21.90;37.40;;;;;;491471;240;2137;-73
2021/05/30 05:11:55;;;;;;;;;;;21.80;37.50;;;;;;491471;240;1457;-73
2021/05/30 05:13:58;;;;;;;;;;;21.90;37.50;;;;;;491482;240;1048;-73
2021/05/30 05:15:58;;;;;;;;;;;21.90;37.50;;;;;;491463;240;1428;-72
2021/05/30 05:17:59;;;;;;;;;;;21.90;37.50;;;;;;491551;240;1048;-72
2021/05/30 05:20:00;;;;;;;;;;;21.90;37.50;;;;;;491549;240;1310;-72
2021/05/30 05:22:02;;;;;;;;;;;21.90;37.50;;;;;;491537;240;1219;-72
2021/05/30 05:24:03;;;;;;;;;;;21.90;37.60;;;;;;491516;240;1040;-72
2021/05/30 05:26:05;;;;;;;;;;;21.90;37.70;;;;;;491571;240;1069;-72
2021/05/30 05:28:06;;;;;;;;;;;21.90;37.60;;;;;;491517;240;1262;-73
2021/05/30 05:30:07;;;;;;;;;;;21.90;37.50;;;;;;491589;240;2188;-73
2021/05/30 05:32:08;;;;;;;;;;;22.00;37.50;;;;;;491474;240;1212;-72
2021/05/30 05:34:09;;;;;;;;;;;22.00;37.50;;;;;;491496;240;960;-72
2021/05/30 05:36:12;;;;;;;;;;;22.00;37.40;;;;;;491456;240;1324;-72
2021/05/30 05:38:12;;;;;;;;;;;22.00;37.50;;;;;;491476;240;1383;-72
2021/05/30 05:40:14;;;;;;;;;;;21.80;37.60;;;;;;491424;240;1212;-72
2021/05/30 05:42:15;;;;;;;;;;;21.90;37.80;;;;;;491434;240;1137;-72
2021/05/30 05:44:16;;;;;;;;;;;21.80;37.70;;;;;;491531;240;970;-72
2021/05/30 05:46:17;;;;;;;;;;;21.90;37.80;;;;;;491497;240;1126;-72
2021/05/30 05:48:19;;;;;;;;;;;21.90;37.70;;;;;;491624;240;1121;-72
2021/05/30 05:50:20;;;;;;;;;;;21.90;37.70;;;;;;491597;240;2144;-72
2021/05/30 05:52:21;;;;;;;;;;;21.80;37.70;;;;;;491522;240;1222;-73
2021/05/30 05:54:23;;;;;;;;;;;21.90;37.80;;;;;;491497;240;971;-72
2021/05/30 05:56:24;;;;;;;;;;;21.90;37.70;;;;;;491454;240;1178;-72
2021/05/30 05:58:25;;;;;;;;;;;21.90;37.70;;;;;;491500;240;989;-73
2021/05/30 06:00:26;;;;;;;;;;;21.90;37.80;;;;;;491466;240;1109;-72
2021/05/30 06:02:28;;;;;;;;;;;21.90;37.80;;;;;;491384;240;1065;-72
2021/05/30 06:04:29;;;;;;;;;;;21.90;37.90;;;;;;491418;240;1078;-72
2021/05/30 06:06:30;;;;;;;;;;;21.80;38.00;;;;;;491315;240;1197;-72
2021/05/30 06:08:32;;;;;;;;;;;21.80;38.00;;;;;;491478;240;985;-72
2021/05/30 06:10:34;;;;;;;;;;;21.90;38.10;;;;;;491492;240;2180;-72
2021/05/30 06:12:35;;;;;;;;;;;21.80;38.10;;;;;;491458;240;1174;-72
2021/05/30 06:14:36;;;;;;;;;;;22.00;38.00;;;;;;491528;240;1083;-72
2021/05/30 06:16:37;;;;;;;;;;;21.90;38.10;;;;;;491397;240;1185;-72
2021/05/30 06:18:38;;;;;;;;;;;21.80;38.10;;;;;;491662;240;1073;-72
2021/05/30 06:20:40;;;;;;;;;;;21.90;38.20;;;;;;491548;240;1104;-72
2021/05/30 06:22:41;;;;;;;;;;;21.80;38.30;;;;;;491621;240;1194;-72
2021/05/30 06:24:42;;;;;;;;;;;21.80;38.20;;;;;;491501;240;944;-72
2021/05/30 06:26:43;;;;;;;;;;;21.80;38.20;;;;;;491388;240;1230;-72
2021/05/30 06:28:45;;;;;;;;;;;21.90;38.30;;;;;;491461;240;1063;-72
2021/05/30 06:30:46;;;;;;;;;;;21.90;38.20;;;;;;491417;240;2129;-72
2021/05/30 06:32:47;;;;;;;;;;;21.90;38.20;;;;;;491494;240;1140;-72
2021/05/30 06:34:50;;;;;;;;;;;21.90;38.30;;;;;;491521;240;1127;-72
2021/05/30 06:36:50;;;;;;;;;;;22.00;38.20;;;;;;491546;240;1367;-73
2021/05/30 06:38:51;;;;;;;;;;;21.90;38.40;;;;;;491594;240;961;-72
2021/05/30 06:40:52;;;;;;;;;;;21.90;38.20;;;;;;491545;240;1091;-72
2021/05/30 06:42:54;;;;;;;;;;;21.90;38.30;;;;;;491573;240;1086;-73
2021/05/30 06:44:55;;;;;;;;;;;21.90;38.30;;;;;;491555;240;1006;-72
2021/05/30 06:46:56;;;;;;;;;;;21.90;38.30;;;;;;491488;240;1267;-73
2021/05/30 06:48:58;;;;;;;;;;;21.80;38.30;;;;;;491599;240;1014;-72
2021/05/30 06:51:15;;;;;;;;;;;21.90;38.30;;;;;;491395;240;2195;-73
2021/05/30 06:53:15;;;;;;;;;;;21.90;38.20;;;;;;491487;240;1422;-72
2021/05/30 06:55:19;;;;;;;;;;;21.90;38.30;;;;;;491496;240;1056;-72
2021/05/30 06:57:18;;;;;;;;;;;22.00;38.20;;;;;;491457;240;1356;-73
2021/05/30 06:59:19;;;;;;;;;;;21.90;38.20;;;;;;491484;240;1097;-73
2021/05/30 07:01:21;;;;;;;;;;;21.90;38.30;;;;;;491520;240;1154;-73
2021/05/30 07:03:22;;;;;;;;;;;21.90;38.30;;;;;;491546;240;1041;-73
2021/05/30 07:05:23;;;;;;;;;;;21.90;38.30;;;;;;491574;240;948;-72
2021/05/30 07:07:25;;;;;;;;;;;21.90;38.40;;;;;;491492;240;1086;-72
2021/05/30 07:09:26;;;;;;;;;;;21.90;38.40;;;;;;491579;240;1055;-72
2021/05/30 07:11:27;;;;;;;;;;;21.80;38.50;;;;;;491508;240;2195;-72
2021/05/30 07:13:28;;;;;;;;;;;21.80;38.60;;;;;;491543;240;929;-73
2021/05/30 07:15:30;;;;;;;;;;;21.80;38.50;;;;;;491459;240;996;-73
2021/05/30 07:17:31;;;;;;;;;;;21.80;38.50;;;;;;491404;240;1171;-73
2021/05/30 07:19:32;;;;;;;;;;;21.90;38.50;;;;;;491472;240;1022;-73
2021/05/30 07:21:33;;;;;;;;;;;21.90;38.50;;;;;;491437;240;1040;-72
2021/05/30 07:23:36;;;;;;;;;;;21.90;38.50;;;;;;491486;240;1013;-72
2021/05/30 07:25:36;;;;;;;;;;;21.90;38.40;;;;;;491493;240;1395;-72
2021/05/30 07:27:39;;;;;;;;;;;22.00;38.40;;;;;;491442;240;1042;-72
2021/05/30 07:29:39;;;;;;;;;;;22.00;38.40;;;;;;491593;240;1379;-72
2021/05/30 07:31:40;;;;;;;;;;;21.90;38.40;;;;;;491476;240;2183;-72
2021/05/30 07:33:41;;;;;;;;;;;21.90;38.50;;;;;;491523;240;1025;-72
2021/05/30 07:35:42;;;;;;;;;;;21.80;38.70;;;;;;491468;240;914;-72
2021/05/30 07:37:44;;;;;;;;;;;21.80;38.80;;;;;;491472;240;1084;-73
2021/05/30 07:39:45;;;;;;;;;;;21.90;38.80;;;;;;491463;240;1035;-72
2021/05/30 07:41:46;;;;;;;;;;;21.90;38.60;;;;;;491469;240;1077;-72
2021/05/30 07:43:48;;;;;;;;;;;21.90;38.70;;;;;;491454;240;1112;-72
2021/05/30 07:45:49;;;;;;;;;;;21.90;38.60;;;;;;491330;240;1038;-72
2021/05/30 07:47:50;;;;;;;;;;;22.00;38.60;;;;;;491464;240;1186;-72
2021/05/30 07:49:51;;;;;;;;;;;21.90;38.60;;;;;;491467;240;996;-72
2021/05/30 07:51:53;;;;;;;;;;;21.90;38.60;;;;;;491407;240;2133;-72
2021/05/30 07:53:54;;;;;;;;;;;21.90;38.70;;;;;;491567;240;1079;-72
2021/05/30 07:55:55;;;;;;;;;;;22.00;38.80;;;;;;491550;240;1109;-72
2021/05/30 07:57:56;;;;;;;;;;;22.00;38.80;;;;;;491521;240;1058;-72
2021/05/30 07:59:58;;;;;;;;;;;21.90;38.70;;;;;;491534;240;963;-72
2021/05/30 08:01:59;;;;;;;;;;;21.90;38.70;;;;;;491411;240;1147;-72
2021/05/30 08:04:01;;;;;;;;;;;21.90;38.60;;;;;;491461;240;969;-72
2021/05/30 08:06:02;;;;;;;;;;;21.90;38.60;;;;;;491439;240;1133;-72
2021/05/30 08:08:03;;;;;;;;;;;21.90;38.60;;;;;;491463;240;1064;-72
2021/05/30 08:10:05;;;;;;;;;;;21.80;38.50;;;;;;491426;240;1014;-72
2021/05/30 08:12:06;;;;;;;;;;;21.90;38.30;;;;;;491446;240;2136;-72
2021/05/30 08:14:07;;;;;;;;;;;21.90;38.20;;;;;;491523;240;1067;-72
2021/05/30 08:16:08;;;;;;;;;;;21.90;38.20;;;;;;491474;240;1209;-72
2021/05/30 08:18:10;;;;;;;;;;;21.90;38.00;;;;;;491481;240;1181;-72
2021/05/30 08:20:11;;;;;;;;;;;21.90;37.90;;;;;;491585;240;943;-72
2021/05/30 08:22:12;;;;;;;;;;;22.00;37.70;;;;;;491567;240;1046;-73
2021/05/30 08:24:14;;;;;;;;;;;22.00;37.70;;;;;;491585;240;1257;-72
2021/05/30 08:26:15;;;;;;;;;;;22.00;37.60;;;;;;491553;240;1319;-73
2021/05/30 08:28:16;;;;;;;;;;;21.90;37.70;;;;;;491623;240;1082;-73
2021/05/30 08:30:17;;;;;;;;;;;21.90;37.60;;;;;;491559;240;1101;-72
2021/05/30 08:32:20;;;;;;;;;;;21.90;37.70;;;;;;491455;240;2188;-72
2021/05/30 08:34:20;;;;;;;;;;;21.80;37.60;;;;;;491516;240;1448;-72
2021/05/30 08:36:21;;;;;;;;;;;21.70;37.60;;;;;;491386;240;1207;-73
2021/05/30 08:38:22;;;;;;;;;;;21.80;37.50;;;;;;491496;240;964;-73
2021/05/30 08:40:24;;;;;;;;;;;21.80;37.40;;;;;;491407;240;1041;-73
2021/05/30 08:42:25;;;;;;;;;;;21.70;37.20;;;;;;491336;240;1072;-72
2021/05/30 08:44:26;;;;;;;;;;;21.70;37.10;;;;;;491499;240;1236;-72
2021/05/30 08:46:28;;;;;;;;;;;21.80;37.00;;;;;;491477;240;1181;-72
2021/05/30 08:48:29;;;;;;;;;;;21.70;36.90;;;;;;491521;240;1132;-72
2021/05/30 08:50:30;;;;;;;;;;;21.70;36.80;;;;;;491539;240;946;-72
2021/05/30 08:52:33;;;;;;;;;;;21.80;36.70;;;;;;491438;240;2173;-72
2021/05/30 08:54:33;;;;;;;;;;;21.70;36.60;;;;;;491504;240;1481;-73
2021/05/30 08:56:34;;;;;;;;;;;21.70;36.50;;;;;;491436;240;954;-72
2021/05/30 08:58:36;;;;;;;;;;;21.70;36.40;;;;;;491609;240;936;-72
2021/05/30 09:00:37;;;;;;;;;;;21.70;36.20;;;;;;491520;240;1156;-72
2021/05/30 09:02:38;;;;;;;;;;;21.70;36.10;;;;;;491426;240;1249;-72
2021/05/30 09:04:39;;;;;;;;;;;21.70;36.00;;;;;;491485;240;1207;-72
2021/05/30 09:06:41;;;;;;;;;;;21.70;35.70;;;;;;491455;240;985;-72
2021/05/30 09:08:42;;;;;;;;;;;21.70;35.60;;;;;;491548;240;942;-72
2021/05/30 09:10:43;;;;;;;;;;;21.70;35.50;;;;;;491469;240;1078;-72
2021/05/30 09:12:45;;;;;;;;;;;21.70;35.50;;;;;;491581;240;2203;-72
2021/05/30 09:14:48;;;;;;;;;;;21.70;35.40;;;;;;491551;240;989;-72
2021/05/30 09:16:47;;;;;;;;;;;21.80;35.20;;;;;;491541;240;1321;-73
2021/05/30 09:18:48;;;;;;;;;;;21.80;35.20;;;;;;491612;240;1184;-73
2021/05/30 09:20:50;;;;;;;;;;;21.80;35.10;;;;;;491446;240;1098;-72
2021/05/30 09:22:51;;;;;;;;;;;21.70;35.00;;;;;;491492;240;1149;-72
2021/05/30 09:24:52;;;;;;;;;;;21.70;35.00;;;;;;491510;240;985;-72
2021/05/30 09:26:53;;;;;;;;;;;21.70;35.00;;;;;;491250;240;1145;-72
2021/05/30 09:28:55;;;;;;;;;;;21.70;34.90;;;;;;491445;240;960;-72
2021/05/30 09:30:56;;;;;;;;;;;21.70;34.90;;;;;;491315;240;1192;-73
2021/05/30 09:32:57;;;;;;;;;;;21.70;34.90;;;;;;491366;240;2156;-72
2021/05/30 09:34:59;;;;;;;;;;;21.70;34.90;;;;;;491452;240;1086;-72
2021/05/30 09:37:00;;;;;;;;;;;21.70;34.90;;;;;;491430;240;1206;-73
2021/05/30 09:39:01;;;;;;;;;;;21.70;34.90;;;;;;491636;240;940;-73
2021/05/30 09:41:02;;;;;;;;;;;21.70;34.80;;;;;;491594;240;1083;-73
2021/05/30 09:43:04;;;;;;;;;;;21.70;34.80;;;;;;491522;240;1096;-73
2021/05/30 09:45:05;;;;;;;;;;;21.70;34.80;;;;;;491539;240;1069;-73
2021/05/30 09:47:07;;;;;;;;;;;21.70;34.90;;;;;;491500;240;1141;-72
2021/05/30 09:49:08;;;;;;;;;;;21.70;34.90;;;;;;491561;240;1191;-72
2021/05/30 09:51:12;;;;;;;;;;;21.60;35.00;;;;;;491461;240;2330;-72
2021/05/30 09:53:11;;;;;;;;;;;21.50;35.00;;;;;;491444;240;1348;-72
2021/05/30 09:55:12;;;;;;;;;;;21.50;35.00;;;;;;491451;240;936;-72
2021/05/30 09:57:13;;;;;;;;;;;21.60;35.00;;;;;;491432;240;1261;-72
2021/05/30 09:59:15;;;;;;;;;;;21.60;34.80;;;;;;491489;240;1157;-72
2021/05/30 10:01:16;;;;;;;;;;;21.50;34.80;;;;;;491418;240;1250;-72
2021/05/30 10:03:17;;;;;;;;;;;21.60;34.90;;;;;;491561;240;1099;-72
2021/05/30 10:05:18;;;;;;;;;;;21.60;34.80;;;;;;491535;240;1111;-72
2021/05/30 10:07:20;;;;;;;;;;;21.60;34.80;;;;;;491378;240;1159;-72
2021/05/30 10:09:21;;;;;;;;;;;21.60;34.80;;;;;;491563;240;1135;-72
2021/05/30 10:11:22;;;;;;;;;;;21.50;34.80;;;;;;491379;240;2175;-72
2021/05/30 10:13:23;;;;;;;;;;;21.50;34.70;;;;;;491563;240;972;-72
2021/05/30 10:15:25;;;;;;;;;;;21.50;34.70;;;;;;491521;240;1085;-73
2021/05/30 10:17:26;;;;;;;;;;;21.50;34.80;;;;;;491438;240;1210;-72
2021/05/30 10:19:27;;;;;;;;;;;21.60;34.70;;;;;;491426;240;1219;-72
2021/05/30 10:21:29;;;;;;;;;;;21.60;34.60;;;;;;491357;240;1164;-72
2021/05/30 10:23:31;;;;;;;;;;;21.50;34.60;;;;;;491495;240;923;-72
2021/05/30 10:25:31;;;;;;;;;;;21.60;34.60;;;;;;491471;240;1420;-72
2021/05/30 10:27:32;;;;;;;;;;;21.60;34.60;;;;;;491409;240;1141;-72
2021/05/30 10:29:34;;;;;;;;;;;21.60;34.70;;;;;;491565;240;1061;-72
2021/05/30 10:31:35;;;;;;;;;;;21.60;34.70;;;;;;491559;240;2141;-72
2021/05/30 10:33:36;;;;;;;;;;;21.60;34.60;;;;;;491465;240;1212;-72
2021/05/30 10:35:38;;;;;;;;;;;21.60;34.60;;;;;;491632;240;1038;-73
2021/05/30 10:37:39;;;;;;;;;;;21.60;34.50;;;;;;491594;240;1051;-72
2021/05/30 10:39:40;;;;;;;;;;;21.60;34.50;;;;;;491601;240;1133;-72
2021/05/30 10:41:41;;;;;;;;;;;21.60;34.50;;;;;;491457;240;1074;-73
2021/05/30 10:43:43;;;;;;;;;;;21.60;34.40;;;;;;491549;240;965;-72
2021/05/30 10:45:44;;;;;;;;;;;21.60;34.30;;;;;;491429;240;1316;-73
2021/05/30 10:47:47;;;;;;;;;;;21.60;34.40;;;;;;491455;240;1080;-72
2021/05/30 10:49:47;;;;;;;;;;;21.60;34.40;;;;;;491485;240;1399;-72
2021/05/30 10:51:49;;;;;;;;;;;21.60;34.50;;;;;;491340;240;2152;-72
2021/05/30 10:53:50;;;;;;;;;;;21.60;34.50;;;;;;491433;240;1322;-72
2021/05/30 10:55:51;;;;;;;;;;;21.60;34.60;;;;;;491504;240;1192;-73
2021/05/30 10:57:52;;;;;;;;;;;21.60;34.50;;;;;;491464;240;1071;-72
2021/05/30 10:59:53;;;;;;;;;;;21.60;34.50;;;;;;491576;240;1247;-72
2021/05/30 11:01:55;;;;;;;;;;;21.60;34.40;;;;;;491551;240;1059;-72
2021/05/30 11:03:56;;;;;;;;;;;21.60;34.30;;;;;;491522;240;1157;-72
2021/05/30 11:05:58;;;;;;;;;;;21.60;34.10;;;;;;491589;240;1039;-72
2021/05/30 11:07:58;;;;;;;;;;;21.60;34.20;;;;;;491467;240;1032;-72
2021/05/30 11:10:02;;;;;;;;;;;21.70;34.30;;;;;;491424;240;959;-72
2021/05/30 11:12:01;;;;;;;;;;;21.60;34.30;;;;;;491419;240;2131;-72
2021/05/30 11:14:02;;;;;;;;;;;21.60;34.40;;;;;;491456;240;949;-73
2021/05/30 11:16:04;;;;;;;;;;;21.70;34.40;;;;;;491464;240;1067;-72
2021/05/30 11:18:05;;;;;;;;;;;21.60;34.60;;;;;;491454;240;998;-73
2021/05/30 11:20:06;;;;;;;;;;;21.50;34.80;;;;;;491520;240;1178;-72
2021/05/30 11:22:07;;;;;;;;;;;21.60;34.70;;;;;;491448;240;1034;-72
2021/05/30 11:24:09;;;;;;;;;;;21.60;34.70;;;;;;491600;240;1012;-72
2021/05/30 11:26:11;;;;;;;;;;;21.60;34.70;;;;;;491601;240;1224;-72
2021/05/30 11:28:12;;;;;;;;;;;21.60;34.60;;;;;;491482;240;1111;-72
2021/05/30 11:30:13;;;;;;;;;;;21.60;34.50;;;;;;491576;240;1040;-72
2021/05/30 11:32:15;;;;;;;;;;;21.70;34.50;;;;;;491444;240;2128;-72
2021/05/30 11:34:16;;;;;;;;;;;21.60;34.40;;;;;;491530;240;1158;-72
2021/05/30 11:36:17;;;;;;;;;;;21.70;34.40;;;;;;491421;240;1340;-72
2021/05/30 11:38:19;;;;;;;;;;;21.60;34.40;;;;;;491472;240;1180;-72
2021/05/30 11:40:22;;;;;;;;;;;21.60;34.30;;;;;;491464;240;1140;-72
2021/05/30 11:42:21;;;;;;;;;;;21.60;34.30;;;;;;491498;240;1356;-72
2021/05/30 11:44:23;;;;;;;;;;;21.70;34.20;;;;;;491445;240;1003;-72
2021/05/30 11:46:24;;;;;;;;;;;21.70;34.20;;;;;;491421;240;1230;-72
2021/05/30 11:48:26;;;;;;;;;;;21.60;34.20;;;;;;491561;240;933;-72
2021/05/30 11:50:26;;;;;;;;;;;21.60;34.20;;;;;;491542;240;1198;-72
2021/05/30 11:52:28;;;;;;;;;;;21.60;34.10;;;;;;491460;240;2172;-72
2021/05/30 11:54:29;;;;;;;;;;;21.60;34.00;;;;;;491550;240;986;-73
2021/05/30 11:56:30;;;;;;;;;;;21.50;34.10;;;;;;491432;240;1185;-72
2021/05/30 11:58:31;;;;;;;;;;;21.50;33.90;;;;;;491609;240;1053;-72